createdAt,value
2023-05-08T00:01:55.472Z,10.27
2023-05-08T00:04:22.135Z,9.95
2023-05-08T00:06:48.842Z,9.73
2023-05-08T00:09:15.390Z,13.77
2023-05-08T00:11:41.995Z,11.75
2023-05-08T00:14:08.640Z,12.60
2023-05-08T00:16:35.265Z,16.70
2023-05-08T00:19:01.972Z,12.85
2023-05-08T00:21:28.570Z,14.27
2023-05-08T00:23:55.204Z,13.95
2023-05-08T00:26:21.903Z,12.98
2023-05-08T00:28:48.418Z,13.13
2023-05-08T00:31:15.056Z,14.57
2023-05-08T00:33:41.638Z,16.48
2023-05-08T00:36:08.314Z,15.57
2023-05-08T00:38:36.226Z,17.05
2023-05-08T00:41:04.463Z,15.18
2023-05-08T00:43:31.005Z,11.05
2023-05-08T00:46:01.054Z,13.45
2023-05-08T00:48:30.553Z,15.48
2023-05-08T00:50:58.192Z,13.95
2023-05-08T00:53:26.605Z,13.07
2023-05-08T00:55:53.833Z,16.33
2023-05-08T00:58:21.504Z,17.15
2023-05-08T01:00:51.756Z,12.43
2023-05-08T01:03:18.590Z,16.83
2023-05-08T01:05:46.024Z,16.10
2023-05-08T01:08:12.631Z,13.63
2023-05-08T01:10:53.689Z,14.48
2023-05-08T01:13:49.759Z,16.25
2023-05-08T01:16:44.228Z,16.80
2023-05-08T01:19:32.861Z,12.68
2023-05-08T01:22:20.865Z,15.48
2023-05-08T01:25:16.278Z,17.20
2023-05-08T01:28:01.664Z,23.80
2023-05-08T01:30:37.918Z,23.25
2023-05-08T01:33:37.252Z,21.70
2023-05-08T01:36:17.815Z,17.02
2023-05-08T01:38:56.271Z,16.17
2023-05-08T01:41:30.536Z,19.95
2023-05-08T01:44:03.033Z,20.83
2023-05-08T01:46:32.951Z,19.88
2023-05-08T01:49:08.218Z,23.08
2023-05-08T01:51:44.889Z,23.75
2023-05-08T01:54:22.331Z,22.83
2023-05-08T01:56:53.106Z,22.98
2023-05-08T01:59:23.794Z,22.05
2023-05-08T02:01:54.272Z,20.48
2023-05-08T02:04:22.969Z,22.45
2023-05-08T02:06:52.107Z,23.75
2023-05-08T02:09:21.364Z,23.30
2023-05-08T02:11:50.879Z,21.88
2023-05-08T02:14:19.752Z,23.58
2023-05-08T02:16:50.830Z,24.23
2023-05-08T02:19:21.924Z,25.52
2023-05-08T02:21:50.865Z,24.20
2023-05-08T02:24:18.361Z,25.42
2023-05-08T02:26:46.906Z,24.80
2023-05-08T02:29:14.719Z,26.02
2023-05-08T02:31:42.286Z,25.98
2023-05-08T02:34:10.558Z,27.55
2023-05-08T02:36:39.240Z,27.83
2023-05-08T02:39:08.194Z,27.98
2023-05-08T02:41:37.210Z,27.55
2023-05-08T02:44:04.145Z,30.08
2023-05-08T02:46:44.407Z,29.80
2023-05-08T02:49:30.218Z,29.27
2023-05-08T03:03:33.093Z,25.05
2023-05-08T03:06:52.395Z,19.05
2023-05-08T03:09:23.043Z,16.77
2023-05-08T03:11:53.968Z,16.35
2023-05-08T03:14:24.770Z,17.27
2023-05-08T03:16:53.624Z,24.55
2023-05-08T03:19:27.231Z,15.82
2023-05-08T03:21:56.116Z,15.60
2023-05-08T03:24:25.365Z,17.77
2023-05-08T03:26:52.248Z,18.50
2023-05-08T03:29:20.326Z,24.60
2023-05-08T03:31:47.464Z,26.55
2023-05-08T03:34:15.975Z,24.73
2023-05-08T03:36:43.197Z,28.92
2023-05-08T03:39:09.899Z,28.50
2023-05-08T03:41:36.458Z,21.20
2023-05-08T03:44:03.672Z,29.60
2023-05-08T03:46:32.111Z,29.92
2023-05-08T03:49:00.316Z,29.85
2023-05-08T03:51:28.507Z,31.17
2023-05-08T03:53:55.007Z,31.67
2023-05-08T03:56:22.101Z,30.25
2023-05-08T03:59:01.841Z,32.33
2023-05-08T04:01:48.768Z,33.38
2023-05-08T04:04:30.773Z,33.50
2023-05-08T04:07:06.020Z,33.20
2023-05-08T04:09:56.255Z,34.03
2023-05-08T04:12:45.513Z,33.70
2023-05-08T04:15:21.623Z,34.13
2023-05-08T04:17:53.993Z,33.08
2023-05-08T04:20:24.501Z,33.10
2023-05-08T04:22:54.360Z,32.90
2023-05-08T04:25:21.364Z,33.97
2023-05-08T04:27:51.169Z,32.08
2023-05-08T04:30:18.113Z,32.75
2023-05-08T04:32:46.658Z,31.83
2023-05-08T04:35:14.582Z,31.77
2023-05-08T04:37:43.467Z,32.35
2023-05-08T04:40:10.911Z,30.48
2023-05-08T04:42:39.419Z,31.13
2023-05-08T04:45:06.915Z,29.15
2023-05-08T04:47:33.495Z,27.92
2023-05-08T04:50:02.198Z,27.60
2023-05-08T04:52:31.615Z,23.45
2023-05-08T04:54:58.274Z,26.75
2023-05-08T04:57:24.832Z,23.92
2023-05-08T04:59:51.590Z,25.80
2023-05-08T05:02:18.432Z,20.15
2023-05-08T05:04:44.953Z,19.73
2023-05-08T05:07:11.510Z,18.00
2023-05-08T05:09:39.178Z,14.13
2023-05-08T05:12:07.260Z,19.60
2023-05-08T05:14:33.837Z,16.75
2023-05-08T05:17:00.475Z,18.38
2023-05-08T05:19:27.199Z,21.70
2023-05-08T05:21:53.998Z,17.45
2023-05-08T05:24:20.558Z,19.42
2023-05-08T05:26:47.067Z,18.15
2023-05-08T05:29:13.594Z,17.52
2023-05-08T05:31:40.312Z,21.75
2023-05-08T05:34:06.907Z,16.33
2023-05-08T05:36:33.478Z,20.88
2023-05-08T05:38:59.944Z,22.63
2023-05-08T05:41:26.404Z,22.42
2023-05-08T05:43:53.014Z,22.90
2023-05-08T05:46:19.533Z,22.38
2023-05-08T05:48:46.089Z,20.65
2023-05-08T05:51:12.656Z,21.77
2023-05-08T05:53:40.209Z,18.13
2023-05-08T05:56:06.997Z,15.50
2023-05-08T05:58:33.688Z,15.13
2023-05-08T06:01:03.216Z,16.98
2023-05-08T06:03:29.830Z,13.55
2023-05-08T06:05:56.694Z,15.35
2023-05-08T06:08:23.462Z,13.43
2023-05-08T06:10:49.913Z,13.50
2023-05-08T06:13:16.551Z,13.73
2023-05-08T06:15:43.261Z,12.85
2023-05-08T06:18:09.812Z,13.35
2023-05-08T06:20:38.561Z,12.90
2023-05-08T06:23:05.692Z,11.70
2023-05-08T06:25:32.180Z,9.25
2023-05-08T06:27:58.670Z,9.43
2023-05-08T06:30:25.431Z,9.73
2023-05-08T06:32:51.954Z,8.98
2023-05-08T06:35:19.533Z,7.10
2023-05-08T06:37:46.706Z,7.40
2023-05-08T06:40:13.835Z,7.30
2023-05-08T06:42:41.363Z,8.55
2023-05-08T06:45:09.456Z,8.27
2023-05-08T06:47:35.977Z,7.40
2023-05-08T06:50:03.274Z,8.10
2023-05-08T06:52:29.870Z,9.10
2023-05-08T06:54:56.322Z,8.35
2023-05-08T06:57:24.247Z,8.20
2023-05-08T06:59:50.770Z,7.32
2023-05-08T07:02:17.242Z,7.70
2023-05-08T07:04:44.409Z,7.20
2023-05-08T07:07:11.617Z,5.82
2023-05-08T07:09:38.189Z,5.40
2023-05-08T07:12:05.137Z,5.70
2023-05-08T07:14:31.874Z,5.47
2023-05-08T07:16:58.766Z,5.55
2023-05-08T07:19:25.350Z,5.53
2023-05-08T07:21:51.879Z,4.85
2023-05-08T07:24:18.363Z,6.03
2023-05-08T07:26:44.836Z,4.72
2023-05-08T07:29:12.369Z,4.30
2023-05-08T07:31:42.004Z,4.97
2023-05-08T07:34:08.554Z,3.60
2023-05-08T07:36:35.066Z,4.13
2023-05-08T07:39:01.612Z,4.75
2023-05-08T07:41:28.130Z,4.70
2023-05-08T07:43:54.631Z,4.80
2023-05-08T07:46:21.795Z,4.60
2023-05-08T07:48:49.403Z,4.65
2023-05-08T07:51:16.441Z,4.65
2023-05-08T07:53:43.722Z,5.07
2023-05-08T07:56:10.294Z,4.68
2023-05-08T07:58:36.801Z,4.35
2023-05-08T08:01:05.397Z,4.78
2023-05-08T08:03:32.150Z,4.82
2023-05-08T08:05:58.796Z,4.10
2023-05-08T08:08:25.610Z,4.65
2023-05-08T08:10:52.788Z,4.30
2023-05-08T08:13:19.523Z,4.50
2023-05-08T08:15:46.157Z,4.70
2023-05-08T08:18:13.159Z,5.07
2023-05-08T08:20:39.757Z,4.55
2023-05-08T08:23:07.696Z,3.70
2023-05-08T08:25:34.376Z,4.10
2023-05-08T08:28:01.060Z,4.80
2023-05-08T08:30:27.783Z,4.90
2023-05-08T08:32:54.429Z,4.20
2023-05-08T08:35:20.998Z,4.00
2023-05-08T08:37:47.480Z,3.78
2023-05-08T08:40:14.168Z,4.40
2023-05-08T08:42:40.967Z,4.28
2023-05-08T08:45:08.396Z,4.05
2023-05-08T08:47:41.346Z,3.65
2023-05-08T08:50:11.460Z,4.00
2023-05-08T08:52:54.608Z,4.30
2023-05-08T08:55:23.307Z,3.88
2023-05-08T08:58:08.581Z,3.85
2023-05-08T09:00:37.479Z,3.60
2023-05-08T09:03:06.629Z,3.25
2023-05-08T09:05:34.275Z,3.90
2023-05-08T09:08:01.352Z,3.35
2023-05-08T09:10:28.160Z,3.83
2023-05-08T09:12:54.809Z,3.58
2023-05-08T09:15:22.014Z,3.28
2023-05-08T09:17:48.594Z,3.58
2023-05-08T09:20:16.214Z,3.35
2023-05-08T09:22:43.654Z,3.30
2023-05-08T09:25:10.913Z,4.65
2023-05-08T09:27:37.758Z,3.97
2023-05-08T09:30:12.872Z,3.65
2023-05-08T09:32:41.259Z,4.00
2023-05-08T09:35:09.245Z,4.18
2023-05-08T09:37:39.297Z,3.90
2023-05-08T09:40:14.653Z,4.03
2023-05-08T09:42:41.636Z,3.53
2023-05-08T09:45:09.502Z,3.47
2023-05-08T09:47:40.290Z,2.72
2023-05-08T09:50:11.072Z,3.40
2023-05-08T09:52:40.291Z,3.25
2023-05-08T09:55:09.416Z,3.60
2023-05-08T09:57:39.185Z,7.15
2023-05-08T10:00:08.827Z,3.65
2023-05-08T10:02:37.471Z,4.75
2023-05-08T10:05:05.973Z,3.63
2023-05-08T10:07:34.624Z,3.20
2023-05-08T10:10:06.492Z,2.67
2023-05-08T10:12:33.982Z,2.55
2023-05-08T10:15:00.593Z,2.75
2023-05-08T10:17:52.865Z,2.65
2023-05-08T10:20:21.628Z,2.72
2023-05-08T10:22:50.741Z,2.78
2023-05-08T10:25:27.648Z,2.28
2023-05-08T10:28:33.176Z,2.33
2023-05-08T10:31:03.868Z,2.30
2023-05-08T10:33:32.069Z,2.67
2023-05-08T10:35:59.976Z,2.88
2023-05-08T10:38:27.431Z,2.55
2023-05-08T10:40:58.907Z,2.92
2023-05-08T10:43:25.941Z,2.63
2023-05-08T10:45:57.542Z,2.28
2023-05-08T11:26:16.573Z,2.90
2023-05-08T11:28:58.820Z,3.90
2023-05-08T11:31:52.426Z,3.83
2023-05-08T11:34:44.183Z,4.18
2023-05-08T11:37:11.453Z,3.10
2023-05-08T11:39:38.045Z,3.05
2023-05-08T11:42:29.263Z,3.65
2023-05-08T11:45:14.206Z,3.40
2023-05-08T11:47:42.946Z,3.20
2023-05-08T11:50:11.561Z,3.53
2023-05-08T11:52:40.743Z,3.33
2023-05-08T11:55:09.719Z,3.95
2023-05-08T11:57:36.366Z,3.30
2023-05-08T12:00:08.137Z,2.90
2023-05-08T12:02:42.901Z,3.40
2023-05-08T12:05:12.635Z,3.13
2023-05-08T12:07:46.580Z,4.00
2023-05-08T12:10:15.286Z,4.20
2023-05-08T12:12:44.466Z,3.70
2023-05-08T12:15:15.356Z,4.32
2023-05-08T12:17:42.947Z,4.03
2023-05-08T12:20:17.642Z,7.03
2023-05-08T12:22:52.742Z,8.27
2023-05-08T12:25:20.094Z,7.38
2023-05-08T12:27:46.903Z,7.28
2023-05-08T12:30:14.916Z,6.63
2023-05-08T12:32:43.339Z,7.88
2023-05-08T12:35:13.983Z,7.88
2023-05-08T12:37:40.613Z,7.55
2023-05-08T12:40:08.537Z,7.43
2023-05-08T12:42:51.409Z,7.68
2023-05-08T12:45:23.427Z,6.70
2023-05-08T12:47:51.459Z,8.32
2023-05-08T12:50:23.012Z,7.30
2023-05-08T12:52:51.760Z,7.28
2023-05-08T12:55:25.437Z,7.45
2023-05-08T12:58:15.103Z,7.00
2023-05-08T13:00:53.806Z,6.75
2023-05-08T13:03:28.823Z,6.50
2023-05-08T13:05:57.901Z,6.93
2023-05-08T13:08:34.598Z,6.03
2023-05-08T13:11:02.484Z,6.35
2023-05-08T13:13:37.020Z,6.78
2023-05-08T13:16:07.565Z,6.57
2023-05-08T13:18:36.822Z,6.47
2023-05-08T13:21:03.851Z,6.72
2023-05-08T13:23:30.741Z,6.97
2023-05-08T13:25:57.294Z,6.95
2023-05-08T13:28:23.802Z,5.28
2023-05-08T13:30:50.352Z,5.00
2023-05-08T13:33:16.845Z,5.35
2023-05-08T13:35:43.429Z,5.18
2023-05-08T13:38:10.050Z,6.32
2023-05-08T13:40:36.620Z,4.65
2023-05-08T13:43:04.332Z,6.80
2023-05-08T13:45:32.310Z,5.72
2023-05-08T13:47:58.927Z,5.70
2023-05-08T13:50:25.509Z,6.10
2023-05-08T13:52:54.743Z,5.95
2023-05-08T13:55:22.805Z,5.70
2023-05-08T13:57:49.617Z,6.10
2023-05-08T14:00:16.584Z,6.65
2023-05-08T14:02:43.379Z,5.57
2023-05-08T14:05:10.124Z,5.28
2023-05-08T14:07:36.772Z,5.47
2023-05-08T14:10:03.849Z,4.45
2023-05-08T14:12:30.525Z,4.88
2023-05-08T14:14:57.196Z,4.93
2023-05-08T14:17:23.940Z,5.90
2023-05-08T14:19:51.512Z,5.07
2023-05-08T14:22:18.108Z,5.40
2023-05-08T14:24:48.388Z,5.25
2023-05-08T14:27:14.942Z,4.80
2023-05-08T14:29:41.573Z,5.68
2023-05-08T14:32:09.415Z,5.50
2023-05-08T14:34:36.988Z,5.00
2023-05-08T14:37:04.831Z,4.35
2023-05-08T14:39:31.471Z,5.20
2023-05-08T14:42:18.343Z,5.93
2023-05-08T14:44:44.458Z,5.53
2023-05-08T14:47:11.014Z,5.13
2023-05-08T14:49:38.823Z,5.20
2023-05-08T14:52:06.574Z,5.32
2023-05-08T14:54:33.569Z,5.55
2023-05-08T14:57:00.352Z,4.72
2023-05-08T14:59:26.828Z,4.68
2023-05-08T15:01:53.513Z,4.90
2023-05-08T15:04:20.515Z,4.35
2023-05-08T15:06:48.406Z,3.92
2023-05-08T15:09:16.712Z,4.90
2023-05-08T15:11:44.230Z,11.48
2023-05-08T15:14:11.034Z,5.13
2023-05-08T15:16:37.598Z,4.90
2023-05-08T15:19:04.139Z,4.55
2023-05-08T15:21:31.058Z,4.72
2023-05-08T15:23:57.594Z,4.45
2023-05-08T15:26:24.136Z,4.57
2023-05-08T15:28:51.009Z,3.80
2023-05-08T15:31:18.462Z,4.55
2023-05-08T15:33:45.584Z,4.90
2023-05-08T15:36:15.860Z,4.70
2023-05-08T15:38:42.835Z,4.60
2023-05-08T15:41:15.431Z,4.20
2023-05-08T15:43:43.250Z,4.60
2023-05-08T15:46:10.170Z,4.80
2023-05-08T15:48:37.906Z,4.05
2023-05-08T15:51:04.446Z,3.70
2023-05-08T15:53:30.959Z,3.75
2023-05-08T15:55:57.603Z,3.67
2023-05-08T15:58:24.253Z,4.13
2023-05-08T16:00:50.941Z,3.80
2023-05-08T16:03:17.826Z,3.78
2023-05-08T16:05:44.608Z,3.47
2023-05-08T16:08:12.873Z,4.57
2023-05-08T16:10:42.198Z,3.28
2023-05-08T16:13:09.600Z,3.53
2023-05-08T16:15:36.374Z,3.55
2023-05-08T16:18:03.152Z,3.67
2023-05-08T16:20:30.241Z,3.40
2023-05-08T16:22:57.679Z,3.83
2023-05-08T16:25:24.913Z,3.35
2023-05-08T16:27:51.630Z,3.53
2023-05-08T16:30:18.536Z,3.20
2023-05-08T16:32:48.034Z,4.20
2023-05-08T16:35:15.019Z,4.28
2023-05-08T16:37:42.380Z,3.95
2023-05-08T16:40:10.184Z,4.28
2023-05-08T16:42:37.293Z,5.10
2023-05-08T16:45:05.144Z,4.13
2023-05-08T16:47:31.811Z,4.95
2023-05-08T16:49:58.649Z,4.80
2023-05-08T16:52:25.290Z,4.95
2023-05-08T16:54:52.384Z,4.78
2023-05-08T16:57:18.926Z,4.75
2023-05-08T16:59:45.488Z,5.47
2023-05-08T17:02:15.571Z,5.13
2023-05-08T17:04:42.172Z,4.63
2023-05-08T17:07:08.728Z,4.70
2023-05-08T17:09:35.279Z,4.90
2023-05-08T17:12:02.251Z,5.13
2023-05-08T17:14:28.814Z,4.55
2023-05-08T17:16:55.406Z,5.43
2023-05-08T17:19:22.171Z,6.00
2023-05-08T17:21:48.810Z,6.00
2023-05-08T17:24:15.315Z,5.65
2023-05-08T17:26:41.879Z,5.95
2023-05-08T17:29:08.402Z,5.78
2023-05-08T17:31:34.978Z,5.85
2023-05-08T17:34:01.541Z,5.75
2023-05-08T17:36:28.118Z,5.10
2023-05-08T17:38:55.472Z,4.10
2023-05-08T17:41:22.757Z,4.63
2023-05-08T17:43:49.449Z,4.78
2023-05-08T17:46:16.566Z,4.82
2023-05-08T17:48:43.545Z,4.90
2023-05-08T17:51:13.949Z,5.60
2023-05-08T17:53:40.690Z,5.43
2023-05-08T17:56:07.682Z,5.50
2023-05-08T17:58:34.340Z,5.65
2023-05-08T18:01:00.924Z,6.00
2023-05-08T18:03:27.936Z,6.10
2023-05-08T18:06:05.360Z,17.55
2023-05-08T18:08:39.165Z,6.82
2023-05-08T18:11:21.615Z,6.57
2023-05-08T18:13:49.429Z,6.63
2023-05-08T18:16:19.349Z,6.80
2023-05-08T18:18:57.596Z,6.78
2023-05-08T18:21:36.150Z,6.32
2023-05-08T18:24:06.946Z,6.55
2023-05-08T18:26:33.511Z,7.15
2023-05-08T18:28:59.968Z,7.32
2023-05-08T18:31:26.638Z,7.55
2023-05-08T18:33:53.155Z,8.10
2023-05-08T18:36:19.672Z,7.32
2023-05-08T18:38:46.128Z,7.55
2023-05-08T18:41:12.665Z,7.53
2023-05-08T18:43:39.385Z,7.80
2023-05-08T18:46:12.259Z,7.40
2023-05-08T18:48:42.083Z,7.63
2023-05-08T18:51:08.688Z,7.97
2023-05-08T18:53:38.319Z,7.90
2023-05-08T18:56:05.684Z,7.38
2023-05-08T18:58:32.454Z,8.05
2023-05-08T19:00:59.308Z,8.45
2023-05-08T19:03:26.456Z,8.07
2023-05-08T19:05:56.157Z,8.60
2023-05-08T19:08:22.706Z,8.45
2023-05-08T19:10:49.206Z,9.45
2023-05-08T19:13:15.978Z,9.38
2023-05-08T19:15:42.590Z,8.80
2023-05-08T19:18:09.349Z,9.18
2023-05-08T19:20:35.990Z,9.60
2023-05-08T19:23:03.952Z,10.52
2023-05-08T19:25:30.759Z,10.63
2023-05-08T19:27:58.644Z,10.52
2023-05-08T19:30:25.257Z,11.00
2023-05-08T19:32:52.008Z,10.82
2023-05-08T19:35:18.545Z,10.90
2023-05-08T19:37:45.060Z,11.50
2023-05-08T19:40:12.258Z,11.40
2023-05-08T19:42:38.911Z,11.68
2023-05-08T19:45:05.792Z,11.63
2023-05-08T19:47:32.298Z,11.18
2023-05-08T19:49:58.767Z,11.80
2023-05-08T19:52:25.271Z,11.88
2023-05-08T19:54:51.861Z,13.10
2023-05-08T19:57:18.355Z,12.02
2023-05-08T19:59:44.828Z,13.52
2023-05-08T20:02:11.480Z,13.27
2023-05-08T20:05:03.816Z,14.25
2023-05-08T20:07:24.571Z,13.82
2023-05-08T20:09:51.108Z,13.88
2023-05-08T20:12:17.680Z,14.63
2023-05-08T20:14:44.312Z,14.15
2023-05-08T20:17:12.292Z,14.02
2023-05-08T20:19:38.965Z,14.35
2023-05-08T20:22:05.752Z,14.63
2023-05-08T20:24:32.432Z,13.88
2023-05-08T20:27:00.129Z,20.63
2023-05-08T20:29:26.848Z,15.27
2023-05-08T20:31:53.750Z,14.80
2023-05-08T20:34:21.921Z,26.60
2023-05-08T20:36:48.725Z,15.88
2023-05-08T20:39:15.273Z,14.85
2023-05-08T20:41:41.774Z,14.38
2023-05-08T20:44:08.581Z,13.98
2023-05-08T20:46:35.144Z,13.45
2023-05-08T20:49:03.774Z,15.13
2023-05-08T20:51:31.850Z,14.38
2023-05-08T20:53:58.539Z,14.13
2023-05-08T20:56:25.471Z,15.05
2023-05-08T20:58:51.989Z,15.13
2023-05-08T21:01:20.929Z,15.50
2023-05-08T21:03:48.076Z,15.13
2023-05-08T21:06:14.604Z,15.82
2023-05-08T21:08:41.122Z,14.52
2023-05-08T21:11:07.548Z,15.55
2023-05-08T21:13:34.130Z,15.80
2023-05-08T21:16:00.849Z,15.60
2023-05-08T21:18:27.444Z,15.63
2023-05-08T21:20:54.000Z,15.52
2023-05-08T21:23:20.961Z,15.57
2023-05-08T21:25:48.245Z,15.73
2023-05-08T21:28:16.567Z,14.90
2023-05-08T21:30:43.810Z,16.23
2023-05-08T21:33:11.543Z,14.80
2023-05-08T21:35:38.138Z,16.05
2023-05-08T21:38:13.655Z,24.55
2023-05-08T21:40:40.380Z,29.30
2023-05-08T21:43:07.030Z,16.75
2023-05-08T21:45:33.904Z,16.13
2023-05-08T21:48:00.767Z,17.15
2023-05-08T21:50:30.062Z,16.90
2023-05-08T21:52:56.712Z,15.48
2023-05-08T21:55:23.800Z,16.65
2023-05-08T21:57:50.571Z,17.25
2023-05-08T22:00:18.620Z,17.80
2023-05-08T22:02:45.174Z,17.40
2023-05-08T22:05:11.949Z,16.58
2023-05-08T22:07:38.612Z,17.02
2023-05-08T22:10:05.828Z,17.50
2023-05-08T22:12:32.329Z,17.63
2023-05-08T22:14:58.824Z,18.63
2023-05-08T22:17:26.393Z,18.52
2023-05-08T22:19:52.946Z,18.95
2023-05-08T22:22:19.432Z,19.23
2023-05-08T22:24:45.951Z,18.85
2023-05-08T22:27:12.469Z,19.45
2023-05-08T22:29:38.910Z,20.63
2023-05-08T22:32:05.478Z,19.80
2023-05-08T22:34:31.944Z,19.55
2023-05-08T22:36:58.429Z,21.13
2023-05-08T22:39:26.259Z,20.15
2023-05-08T22:41:53.714Z,20.60
2023-05-08T22:44:20.412Z,24.40
2023-05-08T22:46:47.282Z,20.35
2023-05-08T22:49:13.868Z,21.88
2023-05-08T22:51:40.411Z,20.95
2023-05-08T22:54:07.401Z,20.05
2023-05-08T22:56:33.866Z,20.40
2023-05-08T22:59:00.384Z,20.60
2023-05-08T23:01:26.940Z,20.88
2023-05-08T23:03:54.333Z,21.65
2023-05-08T23:06:21.435Z,20.00
2023-05-08T23:08:48.093Z,20.45
2023-05-08T23:11:14.629Z,21.33
2023-05-08T23:13:41.181Z,21.92
2023-05-08T23:16:07.797Z,21.30
2023-05-08T23:18:34.591Z,20.77
2023-05-08T23:21:08.034Z,22.23
2023-05-08T23:23:35.682Z,22.73
2023-05-08T23:26:05.016Z,20.67
2023-05-08T23:28:33.800Z,20.13
2023-05-08T23:31:00.918Z,20.35
2023-05-08T23:33:27.663Z,19.67
2023-05-08T23:35:58.424Z,16.08
2023-05-08T23:38:25.986Z,14.57
2023-05-08T23:40:53.705Z,12.32
2023-05-08T23:43:20.185Z,17.25
2023-05-08T23:45:46.678Z,17.48
2023-05-08T23:48:13.261Z,17.80
2023-05-08T23:50:40.779Z,15.52
2023-05-08T23:53:07.637Z,16.80
2023-05-08T23:55:37.962Z,18.48
2023-05-08T23:58:04.846Z,17.98
